Terminal Aerodrome Forecast
Issued by NWS Corpus Christi, TX

Home | Current Version | Previous Version | Text Only | Print | Product List | Glossary On
Versions: 1 2 3 4 5 6 7 8 9 10 11 12 13 14 15 16 17 18 19 20 21 22
000
FTUS44 KCRP 021729
TAFCRP
TAF
KCRP 021729Z 0218/0318 08008KT P6SM VCSH BKN035
     FM022100 11012G17KT P6SM FEW035
     FM030200 12007KT P6SM SCT020
      TEMPO 0309/0313 SHRA
     FM031400 15007KT P6SM VCSH SCT020 BKN035=

USA.gov is the U.S. government's official web portal to all federal, state and local government web resources and services.